sensor_id;sensor_type;location;lat;lon;timestamp;pressure;altitude;pressure_sealevel;temperature;humidity
79131;BME280;72396;45.194;9.142;2024-03-17T00:00:37;101214.22;;;15.33;60.41
79131;BME280;72396;45.194;9.142;2024-03-17T00:03:05;101226.59;;;15.34;59.86
79131;BME280;72396;45.194;9.142;2024-03-17T00:05:30;101223.94;;;15.34;60.04
79131;BME280;72396;45.194;9.142;2024-03-17T00:07:56;101220.56;;;15.31;60.33
79131;BME280;72396;45.194;9.142;2024-03-17T00:10:21;101216.66;;;15.19;60.11
79131;BME280;72396;45.194;9.142;2024-03-17T00:12:47;101219.91;;;15.26;60.36
79131;BME280;72396;45.194;9.142;2024-03-17T00:15:12;101216.56;;;15.20;60.27
79131;BME280;72396;45.194;9.142;2024-03-17T00:17:38;101218.25;;;15.23;60.44
79131;BME280;72396;45.194;9.142;2024-03-17T00:20:04;101214.69;;;15.23;60.18
79131;BME280;72396;45.194;9.142;2024-03-17T00:22:35;101212.53;;;15.12;60.36
79131;BME280;72396;45.194;9.142;2024-03-17T00:25:05;101224.97;;;15.11;60.41
79131;BME280;72396;45.194;9.142;2024-03-17T00:27:30;101219.56;;;15.13;60.87
79131;BME280;72396;45.194;9.142;2024-03-17T00:29:56;101222.09;;;15.16;60.69
79131;BME280;72396;45.194;9.142;2024-03-17T00:32:21;101227.19;;;15.20;60.03
79131;BME280;72396;45.194;9.142;2024-03-17T00:34:47;101215.75;;;14.78;60.96
79131;BME280;72396;45.194;9.142;2024-03-17T00:37:12;101234.44;;;14.96;60.57
79131;BME280;72396;45.194;9.142;2024-03-17T00:39:38;101229.81;;;14.81;61.00
79131;BME280;72396;45.194;9.142;2024-03-17T00:42:03;101220.53;;;14.91;61.06
79131;BME280;72396;45.194;9.142;2024-03-17T00:44:28;101215.22;;;14.91;61.19
79131;BME280;72396;45.194;9.142;2024-03-17T00:46:54;101233.66;;;14.94;60.76
79131;BME280;72396;45.194;9.142;2024-03-17T00:49:19;101234.72;;;14.90;61.17
79131;BME280;72396;45.194;9.142;2024-03-17T00:51:44;101228.47;;;14.70;61.35
79131;BME280;72396;45.194;9.142;2024-03-17T00:54:12;101233.16;;;14.86;61.03
79131;BME280;72396;45.194;9.142;2024-03-17T00:56:38;101235.56;;;14.90;60.94
79131;BME280;72396;45.194;9.142;2024-03-17T00:59:03;101239.94;;;14.71;61.43
79131;BME280;72396;45.194;9.142;2024-03-17T01:01:29;101232.69;;;14.76;61.27
79131;BME280;72396;45.194;9.142;2024-03-17T01:03:54;101238.84;;;14.76;61.15
79131;BME280;72396;45.194;9.142;2024-03-17T01:06:20;101235.25;;;14.77;60.95
79131;BME280;72396;45.194;9.142;2024-03-17T01:08:45;101239.31;;;14.86;61.58
79131;BME280;72396;45.194;9.142;2024-03-17T01:11:17;101255.69;;;14.96;61.08
79131;BME280;72396;45.194;9.142;2024-03-17T01:13:44;101242.09;;;15.04;61.53
79131;BME280;72396;45.194;9.142;2024-03-17T01:16:10;101247.22;;;15.09;60.94
79131;BME280;72396;45.194;9.142;2024-03-17T01:18:35;101241.94;;;15.07;60.72
79131;BME280;72396;45.194;9.142;2024-03-17T01:21:02;101227.97;;;15.03;60.73
79131;BME280;72396;45.194;9.142;2024-03-17T01:23:28;101222.53;;;14.86;60.26
79131;BME280;72396;45.194;9.142;2024-03-17T01:25:53;101222.84;;;14.99;61.14
79131;BME280;72396;45.194;9.142;2024-03-17T01:28:19;101221.66;;;14.85;60.60
79131;BME280;72396;45.194;9.142;2024-03-17T01:30:44;101220.25;;;14.97;60.90
79131;BME280;72396;45.194;9.142;2024-03-17T01:33:10;101226.69;;;15.12;60.57
79131;BME280;72396;45.194;9.142;2024-03-17T01:35:37;101235.50;;;15.13;61.12
79131;BME280;72396;45.194;9.142;2024-03-17T01:38:02;101229.09;;;14.77;61.11
79131;BME280;72396;45.194;9.142;2024-03-17T01:40:28;101235.91;;;14.83;61.79
79131;BME280;72396;45.194;9.142;2024-03-17T01:42:53;101231.06;;;14.72;61.53
79131;BME280;72396;45.194;9.142;2024-03-17T01:45:24;101233.81;;;14.91;61.11
79131;BME280;72396;45.194;9.142;2024-03-17T01:47:52;101227.00;;;14.84;61.14
79131;BME280;72396;45.194;9.142;2024-03-17T01:50:17;101225.03;;;14.89;61.69
79131;BME280;72396;45.194;9.142;2024-03-17T01:52:46;101229.16;;;14.96;61.34
79131;BME280;72396;45.194;9.142;2024-03-17T01:55:13;101222.09;;;14.95;61.60
79131;BME280;72396;45.194;9.142;2024-03-17T01:57:39;101213.75;;;14.84;61.20
79131;BME280;72396;45.194;9.142;2024-03-17T02:00:06;101207.91;;;14.96;61.12
79131;BME280;72396;45.194;9.142;2024-03-17T02:02:34;101212.94;;;14.82;61.48
79131;BME280;72396;45.194;9.142;2024-03-17T02:04:59;101209.97;;;14.67;61.99
79131;BME280;72396;45.194;9.142;2024-03-17T02:07:25;101207.78;;;14.56;62.57
79131;BME280;72396;45.194;9.142;2024-03-17T02:09:50;101211.31;;;14.79;62.01
79131;BME280;72396;45.194;9.142;2024-03-17T02:12:16;101209.94;;;14.69;62.10
79131;BME280;72396;45.194;9.142;2024-03-17T02:14:41;101206.97;;;14.76;62.41
79131;BME280;72396;45.194;9.142;2024-03-17T02:17:07;101210.69;;;14.72;62.27
79131;BME280;72396;45.194;9.142;2024-03-17T02:19:32;101199.44;;;14.66;62.68
79131;BME280;72396;45.194;9.142;2024-03-17T02:21:57;101205.31;;;14.74;62.98
79131;BME280;72396;45.194;9.142;2024-03-17T02:24:23;101200.84;;;14.54;63.19
79131;BME280;72396;45.194;9.142;2024-03-17T02:26:48;101197.44;;;14.72;62.76
79131;BME280;72396;45.194;9.142;2024-03-17T02:29:13;101198.34;;;14.71;62.71
79131;BME280;72396;45.194;9.142;2024-03-17T02:31:39;101189.66;;;14.88;62.83
79131;BME280;72396;45.194;9.142;2024-03-17T02:34:04;101185.06;;;14.92;62.47
79131;BME280;72396;45.194;9.142;2024-03-17T02:36:29;101175.44;;;14.89;62.65
79131;BME280;72396;45.194;9.142;2024-03-17T02:38:55;101167.91;;;14.80;62.46
79131;BME280;72396;45.194;9.142;2024-03-17T02:41:43;101180.50;;;14.96;62.19
79131;BME280;72396;45.194;9.142;2024-03-17T02:44:08;101174.44;;;14.92;62.41
79131;BME280;72396;45.194;9.142;2024-03-17T02:46:34;101176.16;;;14.93;62.22
79131;BME280;72396;45.194;9.142;2024-03-17T02:49:00;101175.53;;;14.88;62.54
79131;BME280;72396;45.194;9.142;2024-03-17T02:51:25;101181.47;;;14.93;62.16
79131;BME280;72396;45.194;9.142;2024-03-17T02:53:51;101186.50;;;14.99;62.35
79131;BME280;72396;45.194;9.142;2024-03-17T02:56:17;101174.44;;;14.92;62.42
79131;BME280;72396;45.194;9.142;2024-03-17T02:58:44;101180.41;;;14.97;62.74
79131;BME280;72396;45.194;9.142;2024-03-17T03:01:11;101187.06;;;14.87;62.45
79131;BME280;72396;45.194;9.142;2024-03-17T03:03:36;101191.19;;;14.73;62.72
79131;BME280;72396;45.194;9.142;2024-03-17T03:06:02;101198.72;;;14.83;62.63
79131;BME280;72396;45.194;9.142;2024-03-17T03:08:30;101201.94;;;14.91;62.34
79131;BME280;72396;45.194;9.142;2024-03-17T03:10:56;101204.28;;;14.78;62.60
79131;BME280;72396;45.194;9.142;2024-03-17T03:13:21;101205.84;;;14.82;62.42
79131;BME280;72396;45.194;9.142;2024-03-17T03:15:47;101207.53;;;14.85;62.57
79131;BME280;72396;45.194;9.142;2024-03-17T03:18:14;101195.38;;;14.79;62.44
79131;BME280;72396;45.194;9.142;2024-03-17T03:20:39;101198.72;;;14.83;62.55
79131;BME280;72396;45.194;9.142;2024-03-17T03:23:05;101195.91;;;14.65;62.65
79131;BME280;72396;45.194;9.142;2024-03-17T03:25:30;101188.59;;;14.49;63.26
79131;BME280;72396;45.194;9.142;2024-03-17T03:27:56;101191.81;;;14.58;62.90
79131;BME280;72396;45.194;9.142;2024-03-17T03:30:23;101184.06;;;14.31;63.81
79131;BME280;72396;45.194;9.142;2024-03-17T03:32:48;101189.53;;;14.48;63.34
79131;BME280;72396;45.194;9.142;2024-03-17T03:35:14;101187.13;;;14.21;64.29
79131;BME280;72396;45.194;9.142;2024-03-17T03:37:42;101177.19;;;14.27;64.10
79131;BME280;72396;45.194;9.142;2024-03-17T03:40:08;101175.31;;;14.29;64.04
79131;BME280;72396;45.194;9.142;2024-03-17T03:42:43;101189.25;;;14.34;64.00
79131;BME280;72396;45.194;9.142;2024-03-17T03:45:09;101187.44;;;14.57;63.65
79131;BME280;72396;45.194;9.142;2024-03-17T03:47:42;101193.53;;;14.59;63.60
79131;BME280;72396;45.194;9.142;2024-03-17T03:50:08;101195.91;;;14.65;63.34
79131;BME280;72396;45.194;9.142;2024-03-17T03:52:37;101188.09;;;14.62;63.10
79131;BME280;72396;45.194;9.142;2024-03-17T03:55:04;101179.38;;;14.58;63.18
79131;BME280;72396;45.194;9.142;2024-03-17T03:57:30;101201.19;;;14.67;63.31
79131;BME280;72396;45.194;9.142;2024-03-17T03:59:57;101206.44;;;14.68;63.40
79131;BME280;72396;45.194;9.142;2024-03-17T04:02:23;101208.22;;;14.68;63.16
79131;BME280;72396;45.194;9.142;2024-03-17T04:04:48;101208.25;;;14.66;63.18
79131;BME280;72396;45.194;9.142;2024-03-17T04:07:13;101207.28;;;14.69;62.65
79131;BME280;72396;45.194;9.142;2024-03-17T04:09:39;101207.69;;;14.59;63.17
79131;BME280;72396;45.194;9.142;2024-03-17T04:12:04;101202.63;;;14.53;63.09
79131;BME280;72396;45.194;9.142;2024-03-17T04:14:30;101201.22;;;14.44;63.02
79131;BME280;72396;45.194;9.142;2024-03-17T04:16:56;101222.72;;;14.59;62.47
79131;BME280;72396;45.194;9.142;2024-03-17T04:19:23;101221.91;;;14.36;62.72
79131;BME280;72396;45.194;9.142;2024-03-17T04:21:48;101231.34;;;14.43;62.80
79131;BME280;72396;45.194;9.142;2024-03-17T04:24:14;101245.25;;;14.48;61.99
79131;BME280;72396;45.194;9.142;2024-03-17T04:26:39;101231.59;;;14.37;61.53
79131;BME280;72396;45.194;9.142;2024-03-17T04:29:04;101253.06;;;14.31;61.58
79131;BME280;72396;45.194;9.142;2024-03-17T04:31:31;101245.09;;;14.31;61.47
79131;BME280;72396;45.194;9.142;2024-03-17T04:33:56;101244.59;;;14.21;61.56
79131;BME280;72396;45.194;9.142;2024-03-17T04:36:22;101241.19;;;14.17;61.19
79131;BME280;72396;45.194;9.142;2024-03-17T04:38:47;101254.25;;;14.00;61.78
79131;BME280;72396;45.194;9.142;2024-03-17T04:41:16;101248.00;;;14.02;62.11
79131;BME280;72396;45.194;9.142;2024-03-17T04:43:42;101242.69;;;14.02;62.22
79131;BME280;72396;45.194;9.142;2024-03-17T04:46:07;101251.53;;;14.03;62.22
79131;BME280;72396;45.194;9.142;2024-03-17T04:48:36;101236.31;;;13.84;62.61
79131;BME280;72396;45.194;9.142;2024-03-17T04:51:02;101245.22;;;14.05;61.91
79131;BME280;72396;45.194;9.142;2024-03-17T04:53:28;101253.41;;;13.99;62.17
79131;BME280;72396;45.194;9.142;2024-03-17T04:56:04;101255.78;;;14.07;62.29
79131;BME280;72396;45.194;9.142;2024-03-17T04:58:31;101251.69;;;13.98;62.65
79131;BME280;72396;45.194;9.142;2024-03-17T05:00:57;101257.97;;;13.96;62.79
79131;BME280;72396;45.194;9.142;2024-03-17T05:03:22;101261.06;;;14.07;62.47
79131;BME280;72396;45.194;9.142;2024-03-17T05:05:48;101250.59;;;14.04;62.69
79131;BME280;72396;45.194;9.142;2024-03-17T05:08:14;101247.88;;;14.05;62.94
79131;BME280;72396;45.194;9.142;2024-03-17T05:10:39;101250.22;;;14.13;62.75
79131;BME280;72396;45.194;9.142;2024-03-17T05:13:05;101266.50;;;14.04;63.14
79131;BME280;72396;45.194;9.142;2024-03-17T05:15:30;101264.47;;;13.14;66.51
79131;BME280;72396;45.194;9.142;2024-03-17T05:17:55;101252.47;;;13.54;65.79
79131;BME280;72396;45.194;9.142;2024-03-17T05:20:21;101271.41;;;13.91;64.45
79131;BME280;72396;45.194;9.142;2024-03-17T05:22:48;101269.41;;;13.74;64.99
79131;BME280;72396;45.194;9.142;2024-03-17T05:25:14;101261.53;;;13.95;64.37
79131;BME280;72396;45.194;9.142;2024-03-17T05:27:40;101272.53;;;14.07;63.89
79131;BME280;72396;45.194;9.142;2024-03-17T05:30:05;101268.06;;;14.10;63.91
79131;BME280;72396;45.194;9.142;2024-03-17T05:32:33;101267.00;;;14.14;63.90
79131;BME280;72396;45.194;9.142;2024-03-17T05:34:59;101276.50;;;14.19;63.75
79131;BME280;72396;45.194;9.142;2024-03-17T05:37:24;101255.09;;;14.02;63.81
79131;BME280;72396;45.194;9.142;2024-03-17T05:39:49;101270.88;;;14.05;63.36
79131;BME280;72396;45.194;9.142;2024-03-17T05:42:15;101272.03;;;13.50;65.98
79131;BME280;72396;45.194;9.142;2024-03-17T05:44:40;101273.88;;;13.48;66.22
79131;BME280;72396;45.194;9.142;2024-03-17T05:47:17;101279.50;;;13.39;66.51
79131;BME280;72396;45.194;9.142;2024-03-17T05:49:42;101276.84;;;13.64;65.93
79131;BME280;72396;45.194;9.142;2024-03-17T05:52:08;101280.78;;;13.77;65.46
79131;BME280;72396;45.194;9.142;2024-03-17T05:54:33;101278.03;;;13.79;65.96
79131;BME280;72396;45.194;9.142;2024-03-17T05:56:59;101284.72;;;13.66;65.79
79131;BME280;72396;45.194;9.142;2024-03-17T05:59:24;101281.22;;;13.65;65.93
79131;BME280;72396;45.194;9.142;2024-03-17T06:01:50;101273.16;;;13.44;66.71
79131;BME280;72396;45.194;9.142;2024-03-17T06:04:15;101272.88;;;13.52;66.47
79131;BME280;72396;45.194;9.142;2024-03-17T06:06:42;101286.53;;;13.40;67.13
79131;BME280;72396;45.194;9.142;2024-03-17T06:09:08;101275.03;;;13.64;66.49
79131;BME280;72396;45.194;9.142;2024-03-17T06:11:35;101275.72;;;13.93;65.64
79131;BME280;72396;45.194;9.142;2024-03-17T06:14:01;101276.88;;;14.10;65.19
79131;BME280;72396;45.194;9.142;2024-03-17T06:16:30;101279.09;;;14.21;65.22
79131;BME280;72396;45.194;9.142;2024-03-17T06:18:56;101281.38;;;14.30;64.99
79131;BME280;72396;45.194;9.142;2024-03-17T06:21:21;101275.19;;;14.30;64.93
79131;BME280;72396;45.194;9.142;2024-03-17T06:23:47;101287.38;;;14.35;65.04
79131;BME280;72396;45.194;9.142;2024-03-17T06:26:12;101291.56;;;14.41;64.92
79131;BME280;72396;45.194;9.142;2024-03-17T06:28:38;101288.97;;;14.40;65.01
79131;BME280;72396;45.194;9.142;2024-03-17T06:31:03;101299.34;;;14.46;64.71
79131;BME280;72396;45.194;9.142;2024-03-17T06:33:32;101291.91;;;14.54;64.75
79131;BME280;72396;45.194;9.142;2024-03-17T06:36:01;101296.63;;;14.47;64.67
79131;BME280;72396;45.194;9.142;2024-03-17T06:38:29;101299.97;;;14.53;64.67
79131;BME280;72396;45.194;9.142;2024-03-17T06:40:54;101300.31;;;14.43;65.01
79131;BME280;72396;45.194;9.142;2024-03-17T06:43:20;101293.56;;;14.36;64.94
79131;BME280;72396;45.194;9.142;2024-03-17T06:45:59;101293.41;;;14.39;64.81
79131;BME280;72396;45.194;9.142;2024-03-17T06:48:25;101291.81;;;14.35;64.88
79131;BME280;72396;45.194;9.142;2024-03-17T06:50:51;101295.38;;;14.34;64.18
79131;BME280;72396;45.194;9.142;2024-03-17T06:53:18;101291.19;;;14.50;64.20
79131;BME280;72396;45.194;9.142;2024-03-17T06:55:44;101300.75;;;14.55;63.83
79131;BME280;72396;45.194;9.142;2024-03-17T06:58:16;101290.00;;;14.58;63.66
79131;BME280;72396;45.194;9.142;2024-03-17T07:00:52;101297.84;;;14.61;63.97
79131;BME280;72396;45.194;9.142;2024-03-17T07:03:17;101294.13;;;14.65;64.20
79131;BME280;72396;45.194;9.142;2024-03-17T07:05:51;101267.84;;;14.59;63.92
79131;BME280;72396;45.194;9.142;2024-03-17T07:08:16;101296.78;;;14.87;64.19
79131;BME280;72396;45.194;9.142;2024-03-17T07:10:42;101289.50;;;14.93;63.47
79131;BME280;72396;45.194;9.142;2024-03-17T07:13:07;101294.09;;;14.89;63.79
79131;BME280;72396;45.194;9.142;2024-03-17T07:15:33;101300.25;;;14.89;63.86
79131;BME280;72396;45.194;9.142;2024-03-17T07:17:59;101309.19;;;15.09;63.48
79131;BME280;72396;45.194;9.142;2024-03-17T07:20:25;101308.50;;;15.04;63.77
79131;BME280;72396;45.194;9.142;2024-03-17T07:22:50;101298.19;;;14.96;63.80
79131;BME280;72396;45.194;9.142;2024-03-17T07:25:15;101293.03;;;14.93;63.88
79131;BME280;72396;45.194;9.142;2024-03-17T07:27:41;101309.97;;;15.11;63.63
79131;BME280;72396;45.194;9.142;2024-03-17T07:30:07;101295.75;;;15.12;63.71
79131;BME280;72396;45.194;9.142;2024-03-17T07:32:33;101298.13;;;15.18;63.81
79131;BME280;72396;45.194;9.142;2024-03-17T07:34:59;101310.91;;;15.10;64.05
79131;BME280;72396;45.194;9.142;2024-03-17T07:37:24;101315.63;;;15.24;64.44
79131;BME280;72396;45.194;9.142;2024-03-17T07:39:50;101319.06;;;15.26;63.87
79131;BME280;72396;45.194;9.142;2024-03-17T07:42:15;101314.59;;;15.06;64.51
79131;BME280;72396;45.194;9.142;2024-03-17T07:44:43;101312.91;;;15.26;64.20
79131;BME280;72396;45.194;9.142;2024-03-17T07:47:09;101316.81;;;15.38;63.89
79131;BME280;72396;45.194;9.142;2024-03-17T07:49:35;101331.69;;;15.42;64.53
79131;BME280;72396;45.194;9.142;2024-03-17T07:52:00;101328.38;;;15.37;64.59
79131;BME280;72396;45.194;9.142;2024-03-17T07:54:26;101336.06;;;15.43;64.35
79131;BME280;72396;45.194;9.142;2024-03-17T07:56:51;101333.69;;;15.37;64.33
79131;BME280;72396;45.194;9.142;2024-03-17T07:59:17;101330.59;;;15.46;64.13
79131;BME280;72396;45.194;9.142;2024-03-17T08:01:43;101337.91;;;15.61;63.92
79131;BME280;72396;45.194;9.142;2024-03-17T08:04:09;101343.94;;;15.65;63.57
79131;BME280;72396;45.194;9.142;2024-03-17T08:06:37;101348.72;;;15.57;63.77
79131;BME280;72396;45.194;9.142;2024-03-17T08:09:03;101354.59;;;15.65;64.12
79131;BME280;72396;45.194;9.142;2024-03-17T08:11:28;101348.00;;;15.74;63.96
79131;BME280;72396;45.194;9.142;2024-03-17T08:13:53;101345.34;;;15.74;63.61
79131;BME280;72396;45.194;9.142;2024-03-17T08:16:20;101346.28;;;15.73;63.61
79131;BME280;72396;45.194;9.142;2024-03-17T08:18:46;101351.59;;;15.73;63.79
79131;BME280;72396;45.194;9.142;2024-03-17T08:21:11;101346.72;;;15.83;63.68
79131;BME280;72396;45.194;9.142;2024-03-17T08:23:37;101346.66;;;15.84;63.69
79131;BME280;72396;45.194;9.142;2024-03-17T08:26:07;101351.44;;;15.97;63.43
79131;BME280;72396;45.194;9.142;2024-03-17T08:28:32;101359.47;;;15.74;63.50
79131;BME280;72396;45.194;9.142;2024-03-17T08:30:59;101360.50;;;15.93;62.88
79131;BME280;72396;45.194;9.142;2024-03-17T08:33:25;101343.47;;;15.76;63.56
79131;BME280;72396;45.194;9.142;2024-03-17T08:35:58;101361.53;;;15.88;63.08
79131;BME280;72396;45.194;9.142;2024-03-17T08:38:25;101361.13;;;15.98;63.49
79131;BME280;72396;45.194;9.142;2024-03-17T08:40:51;101365.59;;;15.97;63.33
79131;BME280;72396;45.194;9.142;2024-03-17T08:43:17;101359.06;;;16.04;63.65
79131;BME280;72396;45.194;9.142;2024-03-17T08:45:43;101339.84;;;15.98;63.34
79131;BME280;72396;45.194;9.142;2024-03-17T08:48:09;101359.44;;;16.16;63.59
79131;BME280;72396;45.194;9.142;2024-03-17T08:50:36;101366.19;;;16.23;63.76
79131;BME280;72396;45.194;9.142;2024-03-17T08:53:02;101364.34;;;16.25;63.55
79131;BME280;72396;45.194;9.142;2024-03-17T08:55:27;101363.41;;;16.26;63.35
79131;BME280;72396;45.194;9.142;2024-03-17T08:57:52;101360.66;;;16.28;63.37
79131;BME280;72396;45.194;9.142;2024-03-17T09:00:18;101366.75;;;16.30;63.41
79131;BME280;72396;45.194;9.142;2024-03-17T09:02:43;101356.06;;;16.31;63.27
79131;BME280;72396;45.194;9.142;2024-03-17T09:05:09;101362.88;;;16.37;63.47
79131;BME280;72396;45.194;9.142;2024-03-17T09:07:34;101355.84;;;16.36;63.24
79131;BME280;72396;45.194;9.142;2024-03-17T09:09:59;101358.56;;;16.34;64.12
79131;BME280;72396;45.194;9.142;2024-03-17T09:12:26;101364.47;;;16.41;63.81
79131;BME280;72396;45.194;9.142;2024-03-17T09:14:53;101360.78;;;16.44;63.96
79131;BME280;72396;45.194;9.142;2024-03-17T09:17:18;101361.59;;;16.46;63.38
79131;BME280;72396;45.194;9.142;2024-03-17T09:19:46;101358.72;;;16.51;63.27
79131;BME280;72396;45.194;9.142;2024-03-17T09:22:12;101360.00;;;16.42;63.49
79131;BME280;72396;45.194;9.142;2024-03-17T09:24:38;101358.13;;;16.44;62.98
79131;BME280;72396;45.194;9.142;2024-03-17T09:27:03;101358.25;;;16.41;63.25
79131;BME280;72396;45.194;9.142;2024-03-17T09:29:30;101360.84;;;16.42;63.20
79131;BME280;72396;45.194;9.142;2024-03-17T09:31:55;101339.00;;;16.36;63.72
79131;BME280;72396;45.194;9.142;2024-03-17T09:34:21;101350.84;;;16.47;63.59
79131;BME280;72396;45.194;9.142;2024-03-17T09:36:46;101351.00;;;16.44;63.71
79131;BME280;72396;45.194;9.142;2024-03-17T09:39:12;101358.72;;;16.51;63.92
79131;BME280;72396;45.194;9.142;2024-03-17T09:41:39;101355.94;;;16.52;64.22
79131;BME280;72396;45.194;9.142;2024-03-17T09:44:06;101359.25;;;16.57;63.68
79131;BME280;72396;45.194;9.142;2024-03-17T09:46:35;101353.91;;;16.57;63.32
79131;BME280;72396;45.194;9.142;2024-03-17T09:49:00;101354.06;;;16.54;63.62
79131;BME280;72396;45.194;9.142;2024-03-17T09:51:26;101356.16;;;16.47;63.88
79131;BME280;72396;45.194;9.142;2024-03-17T09:53:52;101349.91;;;16.48;63.17
79131;BME280;72396;45.194;9.142;2024-03-17T09:56:20;101356.03;;;16.51;63.51
79131;BME280;72396;45.194;9.142;2024-03-17T09:58:50;101357.47;;;16.58;63.20
79131;BME280;72396;45.194;9.142;2024-03-17T10:01:17;101351.03;;;16.62;63.33
79131;BME280;72396;45.194;9.142;2024-03-17T10:06:13;101347.53;;;16.61;63.32
79131;BME280;72396;45.194;9.142;2024-03-17T10:08:49;101338.59;;;16.62;63.68
79131;BME280;72396;45.194;9.142;2024-03-17T10:11:25;101334.78;;;16.68;63.73
79131;BME280;72396;45.194;9.142;2024-03-17T10:14:05;101331.19;;;16.69;63.84
79131;BME280;72396;45.194;9.142;2024-03-17T10:16:32;101342.53;;;16.73;64.09
79131;BME280;72396;45.194;9.142;2024-03-17T10:19:24;101342.91;;;16.83;64.21
79131;BME280;72396;45.194;9.142;2024-03-17T10:21:58;101333.72;;;16.90;63.47
79131;BME280;72396;45.194;9.142;2024-03-17T10:24:26;101333.53;;;16.93;63.31
79131;BME280;72396;45.194;9.142;2024-03-17T10:26:55;101338.59;;;16.99;63.40
79131;BME280;72396;45.194;9.142;2024-03-17T10:29:32;101326.34;;;16.95;63.01
79131;BME280;72396;45.194;9.142;2024-03-17T10:32:05;101319.44;;;16.91;63.00
79131;BME280;72396;45.194;9.142;2024-03-17T10:34:38;101324.78;;;16.91;63.81
79131;BME280;72396;45.194;9.142;2024-03-17T10:39:32;101303.06;;;16.81;63.58
79131;BME280;72396;45.194;9.142;2024-03-17T10:42:04;101299.47;;;16.82;64.15
79131;BME280;72396;45.194;9.142;2024-03-17T10:44:41;101313.09;;;16.94;63.56
79131;BME280;72396;45.194;9.142;2024-03-17T10:47:20;101306.38;;;17.04;63.31
79131;BME280;72396;45.194;9.142;2024-03-17T10:49:46;101282.16;;;16.91;63.12
79131;BME280;72396;45.194;9.142;2024-03-17T10:52:16;101312.94;;;16.97;63.50
79131;BME280;72396;45.194;9.142;2024-03-17T10:54:49;101313.00;;;16.95;63.49
79131;BME280;72396;45.194;9.142;2024-03-17T11:00:00;101315.09;;;17.08;63.57
79131;BME280;72396;45.194;9.142;2024-03-17T11:02:29;101316.81;;;17.09;63.53
79131;BME280;72396;45.194;9.142;2024-03-17T11:05:03;101319.63;;;17.06;63.23
79131;BME280;72396;45.194;9.142;2024-03-17T11:07:29;101328.66;;;17.03;63.19
79131;BME280;72396;45.194;9.142;2024-03-17T11:09:57;101315.72;;;17.13;63.58
79131;BME280;72396;45.194;9.142;2024-03-17T11:15:29;101331.13;;;17.24;63.47
79131;BME280;72396;45.194;9.142;2024-03-17T11:17:52;101332.00;;;17.24;63.32
79131;BME280;72396;45.194;9.142;2024-03-17T11:20:24;101330.13;;;17.26;63.24
79131;BME280;72396;45.194;9.142;2024-03-17T11:22:52;101322.91;;;17.28;62.77
79131;BME280;72396;45.194;9.142;2024-03-17T11:27:58;101318.84;;;17.21;63.52
79131;BME280;72396;45.194;9.142;2024-03-17T11:30:48;101308.19;;;17.21;63.70
79131;BME280;72396;45.194;9.142;2024-03-17T11:49:26;101292.81;;;16.91;63.39
79131;BME280;72396;45.194;9.142;2024-03-17T11:51:53;101290.66;;;17.17;63.61
79131;BME280;72396;45.194;9.142;2024-03-17T11:54:30;101281.91;;;17.31;63.16
79131;BME280;72396;45.194;9.142;2024-03-17T11:57:01;101271.78;;;17.38;63.03
79131;BME280;72396;45.194;9.142;2024-03-17T11:59:26;101264.63;;;17.38;62.87
79131;BME280;72396;45.194;9.142;2024-03-17T12:01:52;101262.03;;;17.54;62.60
79131;BME280;72396;45.194;9.142;2024-03-17T12:04:19;101252.13;;;17.56;62.69
79131;BME280;72396;45.194;9.142;2024-03-17T12:06:46;101246.28;;;17.66;62.40
79131;BME280;72396;45.194;9.142;2024-03-17T12:09:45;101244.84;;;17.60;63.17
79131;BME280;72396;45.194;9.142;2024-03-17T12:12:20;101245.25;;;17.52;62.14
79131;BME280;72396;45.194;9.142;2024-03-17T12:14:48;101245.91;;;17.40;62.37
79131;BME280;72396;45.194;9.142;2024-03-17T12:17:15;101235.31;;;17.38;62.93
79131;BME280;72396;45.194;9.142;2024-03-17T12:19:45;101235.25;;;17.40;63.52
79131;BME280;72396;45.194;9.142;2024-03-17T12:22:16;101227.06;;;17.43;63.78
79131;BME280;72396;45.194;9.142;2024-03-17T12:24:43;101221.56;;;17.46;63.71
79131;BME280;72396;45.194;9.142;2024-03-17T12:27:17;101210.72;;;17.33;61.69
79131;BME280;72396;45.194;9.142;2024-03-17T12:29:42;101210.22;;;17.42;62.95
79131;BME280;72396;45.194;9.142;2024-03-17T12:34:36;101201.53;;;17.39;61.76
79131;BME280;72396;45.194;9.142;2024-03-17T12:37:02;101188.81;;;17.44;61.24
79131;BME280;72396;45.194;9.142;2024-03-17T12:39:33;101200.44;;;17.59;62.26
79131;BME280;72396;45.194;9.142;2024-03-17T12:42:10;101191.50;;;17.60;62.83
79131;BME280;72396;45.194;9.142;2024-03-17T12:44:40;101201.81;;;17.66;63.49
79131;BME280;72396;45.194;9.142;2024-03-17T12:49:49;101174.44;;;17.63;62.00
79131;BME280;72396;45.194;9.142;2024-03-17T12:52:20;101191.75;;;17.71;62.30
79131;BME280;72396;45.194;9.142;2024-03-17T12:54:59;101172.06;;;17.74;62.80
79131;BME280;72396;45.194;9.142;2024-03-17T12:57:47;101174.97;;;17.85;60.49
79131;BME280;72396;45.194;9.142;2024-03-17T13:00:32;101177.66;;;17.85;61.75
79131;BME280;72396;45.194;9.142;2024-03-17T13:02:58;101183.50;;;17.92;61.92
79131;BME280;72396;45.194;9.142;2024-03-17T13:05:23;101193.03;;;17.96;61.80
79131;BME280;72396;45.194;9.142;2024-03-17T13:07:50;101184.72;;;18.02;60.62
79131;BME280;72396;45.194;9.142;2024-03-17T13:10:17;101181.09;;;18.03;61.00
79131;BME280;72396;45.194;9.142;2024-03-17T13:12:43;101184.72;;;18.02;60.56
79131;BME280;72396;45.194;9.142;2024-03-17T13:15:13;101164.03;;;18.06;60.51
79131;BME280;72396;45.194;9.142;2024-03-17T13:17:40;101167.56;;;18.07;59.83
79131;BME280;72396;45.194;9.142;2024-03-17T13:20:12;101172.63;;;18.11;59.08
79131;BME280;72396;45.194;9.142;2024-03-17T13:22:43;101163.50;;;18.15;60.18
79131;BME280;72396;45.194;9.142;2024-03-17T13:25:20;101181.84;;;18.22;60.72